createdAt,value
2022-07-27T00:01:06.045Z,19.08
2022-07-27T00:05:08.686Z,17.60
2022-07-27T00:09:12.044Z,14.35
2022-07-27T00:13:14.872Z,18.42
2022-07-27T00:17:23.888Z,22.80
2022-07-27T00:25:29.545Z,19.80
2022-07-27T00:29:31.576Z,33.28
2022-07-27T00:33:33.840Z,25.52
2022-07-27T00:37:36.053Z,26.15
2022-07-27T00:41:38.266Z,22.95
2022-07-27T00:45:40.345Z,21.70
2022-07-27T00:49:42.652Z,24.92
2022-07-27T00:53:45.687Z,23.48
2022-07-27T00:57:58.309Z,16.90
2022-07-27T01:02:01.452Z,19.98
2022-07-27T01:06:05.393Z,16.33
2022-07-27T01:10:09.135Z,16.70
2022-07-27T01:14:17.126Z,13.90
2022-07-27T01:18:35.007Z,23.63
2022-07-27T01:22:37.496Z,17.52
2022-07-27T01:26:39.500Z,11.63
2022-07-27T01:30:41.883Z,10.50
2022-07-27T01:34:44.005Z,16.15
2022-07-27T01:38:47.101Z,18.70
2022-07-27T01:42:49.236Z,13.45
2022-07-27T01:46:51.532Z,11.68
2022-07-27T01:50:55.279Z,12.65
2022-07-27T01:54:57.547Z,10.70
2022-07-27T01:59:00.297Z,12.35
2022-07-27T02:03:05.059Z,17.58
2022-07-27T02:07:07.107Z,10.98
2022-07-27T02:11:28.206Z,12.68
2022-07-27T02:15:43.058Z,9.45
2022-07-27T02:19:46.830Z,9.30
2022-07-27T02:23:48.902Z,14.05
2022-07-27T02:27:51.073Z,12.85
2022-07-27T02:31:53.068Z,15.02
2022-07-27T02:35:55.424Z,12.68
2022-07-27T02:39:57.455Z,11.10
2022-07-27T02:43:59.776Z,12.48
2022-07-27T02:48:02.307Z,13.00
2022-07-27T02:52:06.153Z,9.68
2022-07-27T02:56:08.468Z,7.07
2022-07-27T03:00:14.344Z,7.85
2022-07-27T03:04:16.708Z,7.45
2022-07-27T03:08:18.948Z,12.77
2022-07-27T03:12:21.083Z,8.25
2022-07-27T03:16:23.411Z,10.05
2022-07-27T03:20:25.651Z,7.15
2022-07-27T03:24:28.073Z,7.60
2022-07-27T03:28:30.194Z,6.35
2022-07-27T03:32:32.699Z,16.63
2022-07-27T03:36:34.764Z,8.82
2022-07-27T03:40:37.567Z,5.32
2022-07-27T03:44:39.595Z,7.50
2022-07-27T03:48:41.803Z,6.88
2022-07-27T03:52:45.599Z,12.25
2022-07-27T03:56:48.176Z,7.60
2022-07-27T04:00:51.198Z,13.68
2022-07-27T04:04:53.523Z,7.72
2022-07-27T04:08:59.713Z,9.50
2022-07-27T04:13:12.911Z,5.90
2022-07-27T04:17:54.463Z,5.90
2022-07-27T04:21:38.935Z,6.28
2022-07-27T04:25:41.408Z,6.88
2022-07-27T04:29:43.741Z,4.95
2022-07-27T04:33:46.143Z,10.45
2022-07-27T04:37:59.052Z,6.07
2022-07-27T04:42:02.267Z,6.72
2022-07-27T04:46:05.318Z,7.75
2022-07-27T04:50:07.992Z,9.65
2022-07-27T04:54:11.501Z,4.95
2022-07-27T04:58:15.171Z,5.15
2022-07-27T05:02:17.513Z,6.90
2022-07-27T05:06:19.898Z,5.25
2022-07-27T05:10:22.345Z,6.90
2022-07-27T05:14:24.616Z,8.40
2022-07-27T05:18:27.039Z,5.15
2022-07-27T05:22:29.359Z,9.32
2022-07-27T05:26:31.648Z,5.22
2022-07-27T05:30:34.048Z,9.15
2022-07-27T05:34:36.394Z,6.93
2022-07-27T05:38:39.807Z,3.85
2022-07-27T05:42:44.050Z,3.28
2022-07-27T05:46:46.153Z,3.65
2022-07-27T05:50:48.377Z,6.07
2022-07-27T05:54:50.551Z,5.43
2022-07-27T05:58:53.094Z,6.03
2022-07-27T06:02:55.297Z,6.43
2022-07-27T06:07:16.073Z,6.28
2022-07-27T06:11:18.307Z,2.67
2022-07-27T06:15:20.956Z,5.03
2022-07-27T06:19:23.274Z,6.68
2022-07-27T06:23:26.026Z,6.60
2022-07-27T06:27:29.721Z,7.20
2022-07-27T06:31:35.643Z,5.65
2022-07-27T06:35:39.027Z,4.82
2022-07-27T06:39:41.366Z,6.05
2022-07-27T06:43:43.445Z,4.57
2022-07-27T06:47:49.863Z,13.18
2022-07-27T06:51:53.300Z,4.13
2022-07-27T06:55:55.819Z,5.13
2022-07-27T06:59:57.852Z,10.40
2022-07-27T07:04:00.896Z,6.28
2022-07-27T07:08:03.319Z,4.78
2022-07-27T07:12:06.147Z,4.93
2022-07-27T07:16:08.545Z,7.53
2022-07-27T07:20:11.427Z,7.10
2022-07-27T07:24:14.011Z,4.25
2022-07-27T07:28:16.436Z,9.55
2022-07-27T07:32:22.811Z,7.80
2022-07-27T07:36:25.222Z,10.15
2022-07-27T07:40:44.574Z,5.20
2022-07-27T07:44:47.373Z,5.68
2022-07-27T07:48:49.837Z,5.85
2022-07-27T07:52:53.931Z,5.50
2022-07-27T07:56:55.959Z,7.32
2022-07-27T08:00:58.166Z,5.97
2022-07-27T08:05:00.216Z,5.35
2022-07-27T08:09:02.490Z,7.95
2022-07-27T08:13:05.287Z,9.13
2022-07-27T08:17:07.692Z,7.60
2022-07-27T08:21:09.680Z,5.60
2022-07-27T08:25:12.327Z,4.75
2022-07-27T08:29:14.845Z,14.13
2022-07-27T08:33:18.256Z,7.78
2022-07-27T08:37:20.316Z,8.60
2022-07-27T08:41:25.593Z,10.38
2022-07-27T08:45:28.356Z,8.93
2022-07-27T08:49:42.381Z,7.07
2022-07-27T08:53:53.363Z,4.78
2022-07-27T08:58:02.245Z,4.93
2022-07-27T09:06:11.711Z,9.15
2022-07-27T09:10:30.414Z,8.38
2022-07-27T09:14:35.189Z,5.07
2022-07-27T09:18:38.959Z,6.15
2022-07-27T09:22:51.280Z,5.63
2022-07-27T09:27:02.775Z,6.57
2022-07-27T09:31:13.323Z,4.70
2022-07-27T09:35:17.461Z,4.05
2022-07-27T09:39:21.842Z,5.30
2022-07-27T09:47:48.668Z,8.20
2022-07-27T09:52:06.104Z,6.25
2022-07-27T09:56:11.634Z,10.40
2022-07-27T10:00:14.305Z,6.68
2022-07-27T10:04:17.860Z,5.05
2022-07-27T10:08:20.520Z,11.00
2022-07-27T10:12:23.428Z,5.13
2022-07-27T10:16:29.222Z,5.55
2022-07-27T10:20:33.456Z,3.92
2022-07-27T10:24:37.276Z,3.22
2022-07-27T10:28:49.985Z,5.68
2022-07-27T10:32:52.186Z,5.85
2022-07-27T10:36:54.473Z,5.43
2022-07-27T10:41:22.856Z,7.60
2022-07-27T10:45:50.321Z,3.80
2022-07-27T10:50:16.446Z,6.93
2022-07-27T10:54:29.413Z,8.15
2022-07-27T10:58:32.119Z,6.30
2022-07-27T11:02:43.476Z,6.25
2022-07-27T11:07:22.677Z,4.25
2022-07-27T11:11:10.630Z,7.03
2022-07-27T11:15:12.791Z,5.88
2022-07-27T11:19:17.974Z,4.72
2022-07-27T11:27:51.469Z,3.45
2022-07-27T11:31:58.463Z,4.95
2022-07-27T11:36:05.145Z,3.85
2022-07-27T11:40:37.468Z,5.60
2022-07-27T11:44:30.564Z,5.28
2022-07-27T11:48:49.923Z,7.38
2022-07-27T11:53:01.857Z,1.92
2022-07-27T11:57:15.832Z,4.22
2022-07-27T12:01:27.987Z,2.97
2022-07-27T12:05:30.103Z,5.50
2022-07-27T12:09:38.128Z,3.78
2022-07-27T12:17:44.705Z,4.47
2022-07-27T12:21:55.349Z,6.03
2022-07-27T12:25:57.740Z,5.13
2022-07-27T12:30:13.833Z,4.45
2022-07-27T12:34:16.186Z,8.93
2022-07-27T12:38:18.361Z,4.55
2022-07-27T12:42:20.612Z,5.88
2022-07-27T12:46:22.788Z,4.57
2022-07-27T12:50:28.935Z,4.13
2022-07-27T12:54:30.967Z,4.90
2022-07-27T12:58:33.471Z,7.55
2022-07-27T13:02:35.506Z,8.60
2022-07-27T13:06:37.779Z,2.05
2022-07-27T13:10:40.143Z,2.38
2022-07-27T13:14:43.409Z,9.32
2022-07-27T13:18:45.932Z,8.95
2022-07-27T13:22:48.741Z,6.90
2022-07-27T13:26:50.807Z,4.80
2022-07-27T13:30:53.145Z,2.00
2022-07-27T13:34:55.211Z,2.53
2022-07-27T13:38:57.606Z,7.03
2022-07-27T13:42:59.710Z,4.13
2022-07-27T13:47:02.583Z,6.70
2022-07-27T13:51:04.512Z,4.28
2022-07-27T13:55:08.164Z,5.80
2022-07-27T13:59:11.931Z,3.95
2022-07-27T14:03:14.344Z,3.55
2022-07-27T14:07:16.795Z,5.15
2022-07-27T14:11:18.970Z,4.65
2022-07-27T14:15:21.079Z,2.70
2022-07-27T14:19:23.249Z,4.35
2022-07-27T14:23:26.659Z,5.47
2022-07-27T14:27:36.243Z,3.40
2022-07-27T14:31:39.805Z,4.25
2022-07-27T14:35:42.605Z,8.70
2022-07-27T14:39:44.652Z,4.00
2022-07-27T14:43:47.219Z,5.28
2022-07-27T14:47:49.688Z,5.53
2022-07-27T14:51:51.946Z,4.97
2022-07-27T14:55:54.286Z,4.53
2022-07-27T14:59:56.734Z,5.30
2022-07-27T15:03:58.993Z,8.27
2022-07-27T15:08:01.404Z,2.72
2022-07-27T15:12:04.099Z,3.63
2022-07-27T15:16:07.395Z,7.53
2022-07-27T15:20:10.851Z,4.93
2022-07-27T15:24:13.814Z,5.75
2022-07-27T15:28:15.953Z,5.03
2022-07-27T15:32:18.190Z,2.80
2022-07-27T15:36:32.310Z,3.30
2022-07-27T15:40:37.188Z,5.53
2022-07-27T15:44:41.423Z,2.85
2022-07-27T15:48:43.800Z,5.63
2022-07-27T15:52:46.572Z,5.10
2022-07-27T15:56:48.964Z,3.22
2022-07-27T16:00:56.008Z,6.43
2022-07-27T16:04:59.924Z,4.18
2022-07-27T16:09:02.383Z,7.30
2022-07-27T16:13:05.759Z,5.10
2022-07-27T16:17:07.882Z,13.02
2022-07-27T16:21:10.126Z,11.23
2022-07-27T16:25:12.168Z,5.35
2022-07-27T16:29:16.148Z,7.32
2022-07-27T16:33:19.038Z,5.22
2022-07-27T16:37:21.306Z,2.70
2022-07-27T16:41:23.694Z,4.57
2022-07-27T16:45:26.075Z,8.20
2022-07-27T16:49:33.557Z,2.63
2022-07-27T16:53:41.493Z,5.57
2022-07-27T16:57:43.584Z,8.43
2022-07-27T17:01:46.509Z,6.25
2022-07-27T17:05:48.911Z,11.00
2022-07-27T17:09:51.338Z,3.70
2022-07-27T17:13:59.331Z,4.70
2022-07-27T17:22:04.655Z,3.10
2022-07-27T17:26:08.994Z,4.03
2022-07-27T17:30:12.534Z,5.72
2022-07-27T17:34:14.734Z,2.85
2022-07-27T17:38:16.799Z,4.90
2022-07-27T17:42:19.123Z,9.93
2022-07-27T17:46:23.348Z,5.05
2022-07-27T17:50:26.517Z,6.95
2022-07-27T17:54:28.623Z,3.88
2022-07-27T17:58:30.987Z,5.13
2022-07-27T18:02:32.983Z,2.60
2022-07-27T18:06:35.720Z,5.25
2022-07-27T18:10:38.774Z,4.63
2022-07-27T18:15:01.279Z,4.93
2022-07-27T18:19:03.610Z,2.70
2022-07-27T18:23:06.769Z,4.65
2022-07-27T18:27:09.343Z,4.32
2022-07-27T18:31:15.209Z,7.45
2022-07-27T18:35:17.818Z,2.75
2022-07-27T18:39:20.025Z,5.10
2022-07-27T18:43:22.072Z,7.18
2022-07-27T18:47:24.365Z,6.55
2022-07-27T18:51:26.573Z,4.55
2022-07-27T18:55:28.909Z,4.85
2022-07-27T18:59:31.072Z,5.05
2022-07-27T19:03:33.649Z,11.02
2022-07-27T19:07:36.405Z,7.57
2022-07-27T19:11:41.804Z,8.68
2022-07-27T19:15:44.990Z,9.40
2022-07-27T19:19:47.632Z,11.85
2022-07-27T19:23:49.892Z,9.82
2022-07-27T19:27:52.186Z,9.93
2022-07-27T19:31:54.260Z,10.65
2022-07-27T19:35:58.123Z,10.57
2022-07-27T19:40:20.224Z,8.95
2022-07-27T19:44:24.146Z,8.07
2022-07-27T19:48:28.020Z,6.15
2022-07-27T19:52:30.349Z,11.63
2022-07-27T19:56:37.108Z,9.48
2022-07-27T20:00:39.939Z,9.88
2022-07-27T20:04:42.141Z,4.63
2022-07-27T20:08:44.466Z,11.32
2022-07-27T20:12:46.600Z,8.82
2022-07-27T20:16:48.878Z,11.82
2022-07-27T20:20:51.085Z,8.23
2022-07-27T20:24:53.351Z,5.82
2022-07-27T20:28:57.620Z,5.40
2022-07-27T20:32:59.811Z,5.10
2022-07-27T20:37:01.780Z,6.78
2022-07-27T20:41:04.207Z,10.23
2022-07-27T20:45:07.820Z,3.28
2022-07-27T20:49:10.282Z,5.65
2022-07-27T20:53:12.527Z,7.38
2022-07-27T20:57:14.741Z,6.90
2022-07-27T21:01:16.875Z,6.10
2022-07-27T21:05:19.821Z,10.05
2022-07-27T21:09:22.029Z,7.45
2022-07-27T21:13:24.586Z,7.05
2022-07-27T21:17:26.725Z,5.53
2022-07-27T21:21:29.049Z,7.70
2022-07-27T21:25:31.133Z,10.38
2022-07-27T21:29:33.748Z,9.35
2022-07-27T21:33:39.616Z,5.13
2022-07-27T21:37:43.966Z,7.53
2022-07-27T21:41:46.446Z,5.97
2022-07-27T21:45:49.822Z,6.65
2022-07-27T21:49:52.438Z,6.78
2022-07-27T21:53:54.773Z,5.53
2022-07-27T21:57:56.808Z,7.82
2022-07-27T22:02:00.986Z,10.98
2022-07-27T22:06:04.149Z,4.65
2022-07-27T22:10:06.948Z,6.90
2022-07-27T22:14:09.130Z,5.78
2022-07-27T22:18:11.513Z,3.90
2022-07-27T22:22:13.787Z,7.05
2022-07-27T22:26:16.189Z,5.80
2022-07-27T22:30:18.319Z,5.00
2022-07-27T22:34:20.562Z,6.20
2022-07-27T22:38:22.614Z,5.53
2022-07-27T22:42:24.893Z,5.88
2022-07-27T22:46:30.088Z,5.32
2022-07-27T22:50:32.469Z,5.35
2022-07-27T22:54:36.724Z,5.00
2022-07-27T22:58:38.945Z,7.57
2022-07-27T23:02:40.949Z,7.63
2022-07-27T23:06:43.218Z,5.68
2022-07-27T23:10:48.336Z,6.95
2022-07-27T23:14:50.530Z,5.53
2022-07-27T23:18:52.467Z,8.27
2022-07-27T23:22:55.330Z,3.20
2022-07-27T23:26:57.614Z,3.38
2022-07-27T23:30:59.973Z,7.30
2022-07-27T23:35:02.191Z,6.18
2022-07-27T23:39:04.420Z,9.02
2022-07-27T23:43:06.505Z,5.80
2022-07-27T23:47:09.023Z,8.07
2022-07-27T23:51:19.985Z,6.75
2022-07-27T23:55:22.318Z,13.25
2022-07-27T23:59:24.346Z,5.43
